createdAt,value
2023-03-31T00:06:37.961Z,12.70
2023-03-31T00:13:20.591Z,12.70
2023-03-31T00:20:05.635Z,12.60
2023-03-31T00:26:47.858Z,12.60
2023-03-31T00:33:30.436Z,12.60
2023-03-31T00:40:13.162Z,12.60
2023-03-31T00:47:13.534Z,12.60
2023-03-31T00:54:04.974Z,12.50
2023-03-31T01:00:50.347Z,12.30
2023-03-31T01:07:40.235Z,12.20
2023-03-31T01:14:22.640Z,12.30
2023-03-31T01:21:25.863Z,12.30
2023-03-31T01:28:49.717Z,12.40
2023-03-31T01:35:55.189Z,12.50
2023-03-31T01:42:52.270Z,12.60
2023-03-31T01:50:07.805Z,12.60
2023-03-31T01:56:58.862Z,12.60
2023-03-31T02:03:48.065Z,12.50
2023-03-31T02:10:33.285Z,12.50
2023-03-31T02:17:18.881Z,12.50
2023-03-31T02:24:07.000Z,12.60
2023-03-31T02:30:59.398Z,12.80
2023-03-31T02:37:43.410Z,12.90
2023-03-31T02:44:28.533Z,12.70
2023-03-31T02:51:29.566Z,12.60
2023-03-31T02:58:34.590Z,12.60
2023-03-31T03:05:34.686Z,12.40
2023-03-31T03:13:06.302Z,12.50
2023-03-31T03:19:55.215Z,12.40
2023-03-31T03:26:37.501Z,12.40
2023-03-31T03:33:19.857Z,12.30
2023-03-31T03:40:02.358Z,12.20
2023-03-31T03:46:44.713Z,12.10
2023-03-31T03:53:27.283Z,12.10
2023-03-31T04:00:13.362Z,12.10
2023-03-31T04:06:57.654Z,12.10
2023-03-31T04:13:40.171Z,12.00
2023-03-31T04:20:22.521Z,11.70
2023-03-31T04:27:07.271Z,11.50
2023-03-31T04:42:36.825Z,11.30
2023-03-31T04:49:19.159Z,11.50
2023-03-31T04:56:01.989Z,11.60
2023-03-31T05:02:44.678Z,11.60
2023-03-31T05:09:27.014Z,11.70
2023-03-31T05:16:12.219Z,11.80
2023-03-31T05:22:54.710Z,11.90
2023-03-31T05:29:37.049Z,12.00
2023-03-31T05:36:19.478Z,12.00
2023-03-31T05:43:01.775Z,11.80
2023-03-31T05:49:44.498Z,11.60
2023-03-31T05:56:27.761Z,11.40
2023-03-31T06:03:10.342Z,11.30
2023-03-31T06:09:52.801Z,11.30
2023-03-31T06:16:35.241Z,11.30
2023-03-31T06:23:17.770Z,11.20
2023-03-31T06:30:00.228Z,11.30
2023-03-31T06:36:42.610Z,11.30
2023-03-31T06:43:25.225Z,11.20
2023-03-31T06:50:09.893Z,11.20
2023-03-31T06:56:52.194Z,11.00
2023-03-31T07:03:34.755Z,10.80
2023-03-31T07:10:17.172Z,10.70
2023-03-31T07:16:59.703Z,10.80
2023-03-31T07:23:42.275Z,10.80
2023-03-31T07:30:24.731Z,10.90
2023-03-31T07:37:07.371Z,11.20
2023-03-31T07:43:50.578Z,11.40
2023-03-31T07:50:33.156Z,12.60
2023-03-31T07:57:19.942Z,15.20
2023-03-31T08:04:02.475Z,17.20
2023-03-31T08:10:45.027Z,15.20
2023-03-31T08:17:27.536Z,17.70
2023-03-31T08:24:10.006Z,19.50
2023-03-31T08:30:52.529Z,21.60
2023-03-31T08:37:35.768Z,21.80
2023-03-31T08:44:42.399Z,23.00
2023-03-31T08:51:28.103Z,24.50
2023-03-31T08:58:22.056Z,25.40
2023-03-31T09:05:30.620Z,26.60
2023-03-31T09:12:39.028Z,25.80
2023-03-31T09:19:37.218Z,26.50
2023-03-31T09:26:34.721Z,24.90
2023-03-31T09:33:32.796Z,26.20
2023-03-31T09:40:27.101Z,26.10
2023-03-31T09:47:21.539Z,23.50
2023-03-31T09:54:23.288Z,20.10
2023-03-31T10:01:12.282Z,20.40
2023-03-31T10:08:22.274Z,24.10
2023-03-31T10:15:28.351Z,24.70
2023-03-31T10:22:43.159Z,24.50
2023-03-31T10:29:34.096Z,24.50
2023-03-31T10:36:21.956Z,24.20
2023-03-31T10:43:15.875Z,24.10
2023-03-31T10:49:58.269Z,23.70
2023-03-31T10:56:46.535Z,22.00
2023-03-31T11:03:46.238Z,21.40
2023-03-31T11:10:59.432Z,20.30
2023-03-31T11:18:08.991Z,19.90
2023-03-31T11:25:16.570Z,19.20
2023-03-31T11:32:37.714Z,17.40
2023-03-31T11:39:34.877Z,13.60
2023-03-31T11:46:50.365Z,12.50
2023-03-31T11:53:36.456Z,12.80
2023-03-31T12:00:23.009Z,13.00
2023-03-31T12:07:22.561Z,13.50
2023-03-31T12:14:25.896Z,13.90
2023-03-31T12:21:10.317Z,14.70
2023-03-31T12:27:54.769Z,15.00
2023-03-31T12:34:42.997Z,14.90
2023-03-31T12:41:34.238Z,15.40
2023-03-31T12:48:28.221Z,16.00
2023-03-31T12:55:42.914Z,16.10
2023-03-31T13:02:26.637Z,16.00
2023-03-31T13:09:12.040Z,16.60
2023-03-31T13:15:57.205Z,17.00
2023-03-31T13:22:43.251Z,17.00
2023-03-31T13:29:40.110Z,16.30
2023-03-31T13:36:29.261Z,15.40
2023-03-31T13:43:43.866Z,14.90
2023-03-31T13:50:38.318Z,14.80
2023-03-31T13:57:38.547Z,14.50
2023-03-31T14:04:58.286Z,14.00
2023-03-31T14:11:41.320Z,13.40
2023-03-31T14:18:28.202Z,13.00
2023-03-31T14:25:21.693Z,13.40
2023-03-31T14:32:31.926Z,14.60
2023-03-31T14:39:21.632Z,15.10
2023-03-31T14:46:09.142Z,15.00
2023-03-31T14:52:52.852Z,15.20
2023-03-31T14:59:37.339Z,15.70
2023-03-31T15:06:19.760Z,15.50
2023-03-31T15:13:07.880Z,15.50
2023-03-31T15:19:59.057Z,15.00
2023-03-31T15:26:54.786Z,14.80
2023-03-31T15:33:41.465Z,14.80
2023-03-31T15:40:31.666Z,14.90
2023-03-31T15:47:20.767Z,15.10
2023-03-31T15:54:04.001Z,15.10
2023-03-31T16:00:52.297Z,15.10
2023-03-31T16:07:35.327Z,15.10
2023-03-31T16:14:55.204Z,14.70
2023-03-31T16:21:44.482Z,14.50
2023-03-31T16:28:32.772Z,14.40
2023-03-31T16:35:15.421Z,14.30
2023-03-31T16:41:57.747Z,14.10
2023-03-31T16:48:40.117Z,14.00
2023-03-31T16:55:22.457Z,13.60
2023-03-31T17:02:05.909Z,13.40
2023-03-31T17:08:48.271Z,13.30
2023-03-31T17:15:30.604Z,12.90
2023-03-31T17:22:12.900Z,12.70
2023-03-31T17:28:55.360Z,12.60
2023-03-31T17:35:38.092Z,12.40
2023-03-31T17:42:20.476Z,12.30
2023-03-31T17:49:02.822Z,12.30
2023-03-31T17:55:45.404Z,12.20
2023-03-31T18:02:28.158Z,12.10
2023-03-31T18:09:14.139Z,12.10
2023-03-31T18:15:56.753Z,11.60
2023-03-31T18:22:39.158Z,11.30
2023-03-31T18:29:21.480Z,10.90
2023-03-31T18:36:04.365Z,10.80
2023-03-31T18:42:47.532Z,10.80
2023-03-31T18:49:30.102Z,10.70
2023-03-31T18:56:12.451Z,10.60
2023-03-31T19:02:54.836Z,10.60
2023-03-31T19:09:37.500Z,10.60
2023-03-31T19:16:20.008Z,10.60
2023-03-31T19:23:02.385Z,10.70
2023-03-31T19:29:44.707Z,10.80
2023-03-31T19:36:27.014Z,10.80
2023-03-31T19:43:29.291Z,10.80
2023-03-31T19:50:13.385Z,10.80
2023-03-31T19:56:55.970Z,10.80
2023-03-31T20:03:38.444Z,10.90
2023-03-31T20:10:21.126Z,10.80
2023-03-31T20:17:04.976Z,11.00
2023-03-31T20:23:48.214Z,11.10
2023-03-31T20:30:30.985Z,11.20
2023-03-31T20:37:13.334Z,11.20
2023-03-31T20:43:56.584Z,11.20
2023-03-31T20:50:39.555Z,11.20
2023-03-31T20:57:24.331Z,11.10
2023-03-31T21:04:08.724Z,11.10
2023-03-31T21:10:51.608Z,11.00
2023-03-31T21:17:34.158Z,11.00
2023-03-31T21:24:16.777Z,10.90
2023-03-31T21:31:04.082Z,10.80
2023-03-31T21:37:46.401Z,10.80
2023-03-31T21:44:28.826Z,10.70
2023-03-31T21:51:11.763Z,10.70
2023-03-31T21:57:54.274Z,10.70
2023-03-31T22:04:36.661Z,10.80
2023-03-31T22:11:19.302Z,10.80
2023-03-31T22:18:01.708Z,10.70
2023-03-31T22:24:44.143Z,10.60
2023-03-31T22:31:26.931Z,10.60
2023-03-31T22:38:12.631Z,10.50
2023-03-31T22:44:54.894Z,10.50
2023-03-31T22:51:37.229Z,10.40
2023-03-31T22:58:19.568Z,10.30
2023-03-31T23:05:02.195Z,10.30
2023-03-31T23:11:47.340Z,10.30
2023-03-31T23:18:30.822Z,10.30
2023-03-31T23:25:13.273Z,10.30
2023-03-31T23:31:55.930Z,10.10
2023-03-31T23:38:38.470Z,10.00
2023-03-31T23:45:21.142Z,10.10
2023-03-31T23:52:04.125Z,10.00
2023-03-31T23:58:47.055Z,9.90
